createdAt,value
2023-04-06T00:00:11.167Z,2.30
2023-04-06T00:02:37.961Z,2.20
2023-04-06T00:05:04.980Z,2.20
2023-04-06T00:07:31.698Z,2.20
2023-04-06T00:09:58.294Z,2.00
2023-04-06T00:12:24.886Z,2.00
2023-04-06T00:14:51.632Z,1.90
2023-04-06T00:17:18.618Z,2.00
2023-04-06T00:19:45.261Z,2.00
2023-04-06T00:22:12.054Z,1.90
2023-04-06T00:24:38.861Z,1.90
2023-04-06T00:27:05.609Z,1.80
2023-04-06T00:29:32.205Z,1.80
2023-04-06T00:31:58.876Z,1.80
2023-04-06T00:34:25.569Z,1.70
2023-04-06T00:36:52.198Z,1.70
2023-04-06T00:39:20.511Z,1.80
2023-04-06T00:41:51.780Z,1.70
2023-04-06T00:44:18.838Z,1.70
2023-04-06T00:46:46.004Z,1.60
2023-04-06T00:49:12.671Z,1.60
2023-04-06T00:51:39.432Z,1.60
2023-04-06T00:54:06.442Z,1.60
2023-04-06T00:56:33.250Z,1.60
2023-04-06T00:59:00.408Z,1.50
2023-04-06T01:01:27.397Z,1.50
2023-04-06T01:03:55.017Z,1.50
2023-04-06T01:06:21.691Z,1.40
2023-04-06T01:08:48.344Z,1.30
2023-04-06T01:11:14.948Z,1.30
2023-04-06T01:13:41.565Z,1.20
2023-04-06T01:16:08.350Z,1.20
2023-04-06T01:18:35.017Z,1.10
2023-04-06T01:21:02.332Z,1.10
2023-04-06T01:23:29.076Z,1.00
2023-04-06T01:25:55.891Z,1.00
2023-04-06T01:28:22.584Z,1.00
2023-04-06T01:30:49.197Z,1.00
2023-04-06T01:33:16.093Z,1.00
2023-04-06T01:35:42.777Z,0.80
2023-04-06T01:38:09.573Z,0.70
2023-04-06T01:40:36.210Z,0.70
2023-04-06T01:43:02.953Z,0.60
2023-04-06T01:45:29.579Z,0.60
2023-04-06T01:47:56.331Z,0.50
2023-04-06T01:50:22.967Z,-0.60
2023-04-06T01:52:49.620Z,0.50
2023-04-06T01:55:16.314Z,0.50
2023-04-06T01:57:42.936Z,0.50
2023-04-06T02:00:10.569Z,0.50
2023-04-06T02:02:37.344Z,0.60
2023-04-06T02:05:04.262Z,0.60
2023-04-06T02:07:30.880Z,0.60
2023-04-06T02:09:57.564Z,0.60
2023-04-06T02:12:25.001Z,0.60
2023-04-06T02:14:51.888Z,0.50
2023-04-06T02:17:18.710Z,0.50
2023-04-06T02:19:45.310Z,0.50
2023-04-06T02:22:12.310Z,0.40
2023-04-06T02:24:38.933Z,0.40
2023-04-06T02:27:06.053Z,0.40
2023-04-06T02:29:32.657Z,0.40
2023-04-06T02:31:59.260Z,0.40
2023-04-06T02:34:26.005Z,0.40
2023-04-06T02:36:52.595Z,0.30
2023-04-06T02:39:19.212Z,0.30
2023-04-06T02:41:45.897Z,0.20
2023-04-06T02:44:12.597Z,0.20
2023-04-06T02:46:39.182Z,0.10
2023-04-06T02:49:06.827Z,0.10
2023-04-06T02:51:34.275Z,0.10
2023-04-06T02:54:01.294Z,0.10
2023-04-06T02:56:27.904Z,0.00
2023-04-06T02:58:54.576Z,0.00
2023-04-06T03:01:21.417Z,-0.10
2023-04-06T03:03:48.192Z,-0.20
2023-04-06T03:06:14.873Z,-0.20
2023-04-06T03:08:41.573Z,-0.30
2023-04-06T03:11:08.180Z,-0.30
2023-04-06T03:13:34.840Z,-0.40
2023-04-06T03:16:01.703Z,-0.40
2023-04-06T03:18:28.449Z,-0.40
2023-04-06T03:20:55.203Z,-0.40
2023-04-06T03:23:22.177Z,-0.40
2023-04-06T03:25:48.851Z,-0.40
2023-04-06T03:28:15.900Z,-0.40
2023-04-06T03:30:42.724Z,-0.40
2023-04-06T03:33:09.451Z,-1.40
2023-04-06T03:35:37.838Z,-0.30
2023-04-06T03:38:05.348Z,-0.30
2023-04-06T03:40:32.406Z,-0.20
2023-04-06T03:42:59.193Z,-0.30
2023-04-06T03:45:25.930Z,-0.20
2023-04-06T03:47:52.684Z,-0.30
2023-04-06T03:50:19.394Z,-0.30
2023-04-06T03:52:46.070Z,-0.40
2023-04-06T03:55:12.710Z,-0.40
2023-04-06T03:57:39.317Z,-0.50
2023-04-06T04:00:06.767Z,-0.50
2023-04-06T04:02:33.426Z,-0.50
2023-04-06T04:05:00.481Z,-0.60
2023-04-06T04:07:27.135Z,-0.60
2023-04-06T04:09:53.776Z,-0.60
2023-04-06T04:12:20.428Z,-0.70
2023-04-06T04:14:47.119Z,-0.70
2023-04-06T04:17:13.761Z,-0.80
2023-04-06T04:19:40.603Z,-0.80
2023-04-06T04:22:07.567Z,-0.80
2023-04-06T04:24:34.204Z,-0.90
2023-04-06T04:27:01.873Z,-0.90
2023-04-06T04:29:28.590Z,-0.90
2023-04-06T04:31:55.238Z,-0.90
2023-04-06T04:34:24.634Z,-0.90
2023-04-06T04:36:51.488Z,-1.00
2023-04-06T04:39:18.138Z,-1.00
2023-04-06T04:41:44.784Z,-1.00
2023-04-06T04:44:11.400Z,-1.00
2023-04-06T04:46:38.005Z,-1.00
2023-04-06T04:49:04.593Z,-1.00
2023-04-06T04:51:32.193Z,-1.00
2023-04-06T04:53:58.881Z,-1.00
2023-04-06T04:56:26.208Z,-1.00
2023-04-06T04:58:52.892Z,-0.90
2023-04-06T05:01:19.505Z,-1.00
2023-04-06T05:03:46.278Z,-1.00
2023-04-06T05:06:13.526Z,-1.00
2023-04-06T05:08:40.537Z,-1.00
2023-04-06T05:11:07.222Z,-1.00
2023-04-06T05:13:33.944Z,-0.90
2023-04-06T05:16:00.668Z,-0.90
2023-04-06T05:18:27.434Z,-0.90
2023-04-06T05:20:54.089Z,-0.90
2023-04-06T05:23:21.061Z,-0.90
2023-04-06T05:25:47.729Z,-0.80
2023-04-06T05:28:17.387Z,-0.80
2023-04-06T05:30:45.364Z,-0.70
2023-04-06T05:33:12.530Z,-0.60
2023-04-06T05:35:39.183Z,-0.50
2023-04-06T05:38:09.551Z,-0.40
2023-04-06T05:40:36.541Z,-0.20
2023-04-06T05:43:03.448Z,-0.10
2023-04-06T05:45:31.065Z,0.10
2023-04-06T05:47:57.682Z,0.20
2023-04-06T05:50:24.384Z,0.40
2023-04-06T05:52:50.987Z,0.60
2023-04-06T05:55:17.600Z,0.80
2023-04-06T05:57:44.192Z,1.10
2023-04-06T06:00:11.459Z,1.40
2023-04-06T06:02:38.292Z,1.70
2023-04-06T06:05:05.377Z,2.00
2023-04-06T06:07:32.024Z,2.30
2023-04-06T06:09:59.302Z,2.60
2023-04-06T06:12:26.021Z,3.00
2023-04-06T06:14:52.678Z,3.60
2023-04-06T06:17:19.327Z,4.40
2023-04-06T06:19:46.165Z,5.00
2023-04-06T06:22:12.808Z,5.50
2023-04-06T06:24:39.455Z,5.80
2023-04-06T06:27:06.095Z,5.90
2023-04-06T06:29:32.702Z,6.00
2023-04-06T06:31:59.433Z,6.10
2023-04-06T06:34:26.525Z,6.30
2023-04-06T06:36:55.749Z,6.60
2023-04-06T06:39:22.464Z,6.80
2023-04-06T06:41:49.113Z,7.00
2023-04-06T06:44:17.619Z,7.20
2023-04-06T06:46:44.511Z,7.70
2023-04-06T06:49:13.229Z,8.00
2023-04-06T06:51:39.989Z,8.50
2023-04-06T06:54:07.597Z,9.00
2023-04-06T06:56:36.752Z,9.50
2023-04-06T06:59:03.466Z,9.90
2023-04-06T07:01:30.170Z,10.30
2023-04-06T07:03:56.981Z,10.70
2023-04-06T07:06:23.676Z,11.30
2023-04-06T07:08:50.293Z,12.00
2023-04-06T07:11:16.920Z,12.50
2023-04-06T07:13:44.009Z,12.80
2023-04-06T07:16:10.821Z,13.20
2023-04-06T07:18:37.528Z,13.60
2023-04-06T07:21:04.516Z,14.70
2023-04-06T07:23:31.174Z,15.40
2023-04-06T07:25:57.870Z,15.90
2023-04-06T07:28:24.482Z,16.50
2023-04-06T07:30:51.455Z,17.00
2023-04-06T07:33:18.102Z,17.60
2023-04-06T07:35:44.769Z,17.70
2023-04-06T07:38:11.428Z,18.40
2023-04-06T07:40:38.377Z,19.40
2023-04-06T07:43:05.006Z,19.70
2023-04-06T07:45:31.970Z,20.00
2023-04-06T07:47:59.643Z,20.00
2023-04-06T07:50:26.319Z,19.60
2023-04-06T07:52:52.921Z,19.50
2023-04-06T07:55:19.586Z,19.70
2023-04-06T07:57:46.228Z,20.40
2023-04-06T08:00:14.048Z,20.90
2023-04-06T08:02:40.921Z,21.30
2023-04-06T08:05:08.290Z,22.00
2023-04-06T08:07:35.307Z,22.30
2023-04-06T08:10:02.139Z,22.30
2023-04-06T08:12:28.762Z,22.70
2023-04-06T08:14:55.550Z,23.00
2023-04-06T08:17:22.221Z,23.20
2023-04-06T08:19:48.974Z,23.70
2023-04-06T08:22:15.700Z,23.90
2023-04-06T08:24:42.374Z,23.50
2023-04-06T08:27:09.078Z,23.10
2023-04-06T08:29:35.822Z,22.80
2023-04-06T08:32:05.960Z,22.80
2023-04-06T08:34:34.051Z,22.80
2023-04-06T08:37:01.366Z,23.10
2023-04-06T08:39:28.711Z,23.20
2023-04-06T08:41:57.973Z,22.80
2023-04-06T08:44:25.333Z,22.30
2023-04-06T08:46:53.734Z,22.20
2023-04-06T08:49:20.614Z,22.30
2023-04-06T08:51:48.216Z,22.60
2023-04-06T08:54:15.215Z,22.90
2023-04-06T08:56:42.524Z,23.20
2023-04-06T08:59:10.250Z,23.80
2023-04-06T09:01:44.128Z,24.20
2023-04-06T09:04:13.047Z,23.90
2023-04-06T09:06:41.434Z,24.10
2023-04-06T09:09:08.295Z,24.00
2023-04-06T09:11:49.679Z,22.70
2023-04-06T09:14:17.718Z,21.90
2023-04-06T09:16:46.361Z,22.10
2023-04-06T09:19:13.503Z,22.10
2023-04-06T09:21:41.089Z,21.80
2023-04-06T09:24:09.095Z,21.40
2023-04-06T09:26:47.533Z,20.90
2023-04-06T09:29:29.120Z,20.90
2023-04-06T09:32:06.710Z,20.80
2023-04-06T09:34:37.677Z,20.40
2023-04-06T09:37:17.584Z,20.40
2023-04-06T09:39:44.550Z,20.50
2023-04-06T09:42:12.386Z,20.30
2023-04-06T09:44:39.091Z,19.80
2023-04-06T09:47:09.156Z,19.70
2023-04-06T09:49:36.379Z,19.40
2023-04-06T09:52:04.740Z,19.60
2023-04-06T09:54:32.998Z,19.90
2023-04-06T09:57:14.609Z,19.80
2023-04-06T10:00:09.616Z,19.30
2023-04-06T10:03:07.042Z,18.90
2023-04-06T10:05:47.485Z,18.80
2023-04-06T10:08:15.565Z,19.30
2023-04-06T10:10:43.493Z,18.90
2023-04-06T10:13:12.546Z,18.50
2023-04-06T10:15:41.237Z,18.50
2023-04-06T10:18:08.627Z,18.40
2023-04-06T10:20:47.971Z,18.30
2023-04-06T10:23:16.854Z,18.40
2023-04-06T10:25:57.744Z,18.00
2023-04-06T10:28:25.789Z,18.10
2023-04-06T10:31:00.561Z,18.40
2023-04-06T10:33:27.915Z,18.90
2023-04-06T10:35:56.556Z,19.50
2023-04-06T10:38:41.483Z,20.00
2023-04-06T10:41:10.731Z,20.40
2023-04-06T10:43:39.206Z,20.40
2023-04-06T10:46:07.826Z,20.80
2023-04-06T10:48:42.276Z,21.40
2023-04-06T10:51:11.861Z,22.10
2023-04-06T10:53:38.619Z,22.20
2023-04-06T10:56:14.938Z,22.00
2023-04-06T10:58:49.054Z,22.10
2023-04-06T11:01:21.111Z,22.10
2023-04-06T11:03:49.863Z,21.10
2023-04-06T11:06:24.096Z,20.40
2023-04-06T11:08:51.975Z,20.60
2023-04-06T11:11:21.144Z,20.30
2023-04-06T11:13:57.763Z,20.30
2023-04-06T11:16:29.137Z,20.10
2023-04-06T11:19:03.898Z,19.50
2023-04-06T11:21:42.334Z,19.20
2023-04-06T11:24:26.812Z,18.60
2023-04-06T11:26:58.449Z,19.00
2023-04-06T11:29:31.352Z,19.20
2023-04-06T11:32:03.283Z,19.40
2023-04-06T11:34:31.683Z,19.40
2023-04-06T11:37:00.917Z,18.90
2023-04-06T11:39:29.619Z,18.70
2023-04-06T11:41:59.833Z,18.70
2023-04-06T11:44:36.397Z,18.20
2023-04-06T11:47:04.935Z,17.90
2023-04-06T11:49:33.275Z,17.60
2023-04-06T11:52:01.276Z,17.40
2023-04-06T11:54:46.746Z,17.60
2023-04-06T11:57:13.480Z,17.90
2023-04-06T11:59:40.294Z,18.10
2023-04-06T12:02:07.363Z,18.30
2023-04-06T12:04:34.202Z,18.30
2023-04-06T12:07:00.919Z,18.30
2023-04-06T12:09:27.736Z,18.40
2023-04-06T12:11:54.366Z,18.80
2023-04-06T12:14:23.005Z,19.10
2023-04-06T12:16:49.674Z,18.80
2023-04-06T12:19:16.313Z,18.20
2023-04-06T12:21:43.494Z,18.00
2023-04-06T12:24:10.418Z,17.90
2023-04-06T12:26:38.189Z,18.10
2023-04-06T12:29:08.216Z,18.50
2023-04-06T12:31:40.022Z,18.40
2023-04-06T12:34:07.556Z,18.80
2023-04-06T12:36:34.556Z,18.70
2023-04-06T12:39:01.936Z,18.20
2023-04-06T12:41:29.693Z,18.00
2023-04-06T12:43:56.690Z,17.50
2023-04-06T12:46:24.487Z,16.90
2023-04-06T12:48:54.490Z,16.70
2023-04-06T12:51:21.457Z,16.90
2023-04-06T12:53:48.153Z,17.30
2023-04-06T12:56:18.690Z,17.40
2023-04-06T12:58:46.323Z,17.30
2023-04-06T13:01:14.045Z,17.40
2023-04-06T13:03:42.097Z,17.30
2023-04-06T13:06:09.504Z,17.50
2023-04-06T13:08:38.083Z,18.00
2023-04-06T13:11:05.885Z,18.50
2023-04-06T13:13:32.917Z,18.30
2023-04-06T13:16:13.049Z,17.80
2023-04-06T13:18:40.285Z,17.70
2023-04-06T13:21:08.344Z,17.30
2023-04-06T13:23:35.734Z,17.20
2023-04-06T13:26:04.653Z,17.20
2023-04-06T13:28:32.354Z,17.10
2023-04-06T13:31:00.523Z,17.00
2023-04-06T13:33:27.562Z,17.20
2023-04-06T13:35:54.811Z,17.50
2023-04-06T13:38:21.691Z,17.70
2023-04-06T13:40:48.368Z,17.80
2023-04-06T13:43:15.057Z,17.80
2023-04-06T13:45:41.905Z,17.70
2023-04-06T13:48:08.595Z,17.60
2023-04-06T13:50:36.075Z,17.50
2023-04-06T13:53:02.664Z,17.30
2023-04-06T13:55:29.401Z,16.80
2023-04-06T13:57:56.126Z,16.50
2023-04-06T14:00:23.062Z,16.60
2023-04-06T14:02:49.783Z,16.60
2023-04-06T14:05:16.755Z,16.60
2023-04-06T14:07:43.350Z,16.50
2023-04-06T14:10:14.741Z,16.30
2023-04-06T14:12:45.691Z,16.10
2023-04-06T14:15:13.217Z,16.10
2023-04-06T14:17:40.625Z,16.00
2023-04-06T14:20:08.455Z,15.90
2023-04-06T14:22:35.135Z,15.60
2023-04-06T14:25:02.037Z,15.50
2023-04-06T14:27:28.682Z,15.40
2023-04-06T14:29:55.880Z,15.50
2023-04-06T14:32:22.540Z,15.30
2023-04-06T14:34:49.237Z,15.20
2023-04-06T14:37:16.038Z,15.20
2023-04-06T14:39:42.691Z,15.10
2023-04-06T14:42:09.319Z,15.10
2023-04-06T14:44:37.648Z,15.10
2023-04-06T14:47:07.541Z,15.10
2023-04-06T14:49:34.187Z,15.20
2023-04-06T14:52:01.119Z,15.20
2023-04-06T14:54:27.968Z,15.00
2023-04-06T14:56:54.577Z,15.00
2023-04-06T14:59:21.212Z,15.00
2023-04-06T15:01:47.890Z,15.00
2023-04-06T15:04:15.193Z,15.10
2023-04-06T15:06:42.442Z,15.10
2023-04-06T15:09:09.187Z,15.00
2023-04-06T15:11:35.899Z,15.00
2023-04-06T15:14:02.923Z,14.80
2023-04-06T15:16:33.360Z,14.70
2023-04-06T15:19:01.333Z,14.60
2023-04-06T15:21:28.317Z,14.50
2023-04-06T15:23:55.627Z,14.40
2023-04-06T15:26:22.328Z,14.50
2023-04-06T15:28:48.977Z,14.60
2023-04-06T15:31:28.171Z,14.60
2023-04-06T15:34:03.072Z,14.70
2023-04-06T15:36:30.461Z,14.70
2023-04-06T15:38:58.139Z,14.70
2023-04-06T15:41:26.945Z,14.60
2023-04-06T15:43:54.193Z,14.60
2023-04-06T15:46:21.760Z,14.40
2023-04-06T15:48:48.598Z,14.50
2023-04-06T15:51:17.510Z,14.50
2023-04-06T15:53:44.733Z,14.50
2023-04-06T15:56:11.781Z,14.60
2023-04-06T15:58:38.474Z,14.70
2023-04-06T16:01:31.541Z,14.70
2023-04-06T16:03:58.356Z,14.70
2023-04-06T16:06:25.131Z,14.70
2023-04-06T16:08:51.806Z,14.70
2023-04-06T16:11:18.527Z,14.70
2023-04-06T16:13:50.033Z,14.70
2023-04-06T16:16:21.972Z,14.50
2023-04-06T16:18:48.726Z,14.30
2023-04-06T16:21:17.283Z,14.20
2023-04-06T16:23:45.564Z,14.00
2023-04-06T16:26:18.493Z,14.00
2023-04-06T16:28:45.657Z,13.90
2023-04-06T16:31:22.809Z,13.80
2023-04-06T16:33:53.468Z,13.70
2023-04-06T16:36:28.317Z,13.60
2023-04-06T16:38:56.533Z,13.50
2023-04-06T16:41:23.879Z,13.40
2023-04-06T16:43:50.814Z,13.30
2023-04-06T16:46:17.631Z,13.10
2023-04-06T16:48:44.410Z,12.90
2023-04-06T16:51:11.174Z,12.90
2023-04-06T16:53:38.782Z,13.00
2023-04-06T16:56:06.303Z,13.00
2023-04-06T16:58:36.175Z,13.00
2023-04-06T17:01:03.031Z,12.90
2023-04-06T17:03:30.642Z,12.80
2023-04-06T17:05:57.655Z,12.70
2023-04-06T17:08:24.339Z,12.70
2023-04-06T17:10:59.024Z,12.70
2023-04-06T17:13:29.488Z,12.70
2023-04-06T17:15:56.152Z,12.70
2023-04-06T17:18:22.809Z,12.70
2023-04-06T17:20:49.476Z,12.70
2023-04-06T17:23:16.583Z,12.70
2023-04-06T17:25:43.446Z,12.60
2023-04-06T17:28:10.223Z,12.60
2023-04-06T17:30:37.291Z,12.50
2023-04-06T17:33:04.021Z,12.50
2023-04-06T17:35:30.891Z,12.40
2023-04-06T17:37:57.579Z,12.40
2023-04-06T17:40:24.242Z,12.30
2023-04-06T17:42:51.116Z,12.20
2023-04-06T17:45:17.772Z,12.10
2023-04-06T17:47:44.561Z,12.10
2023-04-06T17:50:11.772Z,12.10
2023-04-06T17:52:38.425Z,12.10
2023-04-06T17:55:05.376Z,12.10
2023-04-06T17:57:32.079Z,12.00
2023-04-06T17:59:58.817Z,12.00
2023-04-06T18:02:25.982Z,11.90
2023-04-06T18:04:53.336Z,11.80
2023-04-06T18:07:20.235Z,11.70
2023-04-06T18:09:47.052Z,11.50
2023-04-06T18:12:13.698Z,11.40
2023-04-06T18:14:41.934Z,11.20
2023-04-06T18:17:08.753Z,11.20
2023-04-06T18:19:35.411Z,11.10
2023-04-06T18:22:02.068Z,11.00
2023-04-06T18:24:41.595Z,11.00
2023-04-06T18:27:10.374Z,11.00
2023-04-06T18:29:37.244Z,11.00
2023-04-06T18:32:04.831Z,11.00
2023-04-06T18:34:31.523Z,11.00
2023-04-06T18:36:59.919Z,11.00
2023-04-06T18:39:27.167Z,10.90
2023-04-06T18:41:53.852Z,10.90
2023-04-06T18:44:20.565Z,10.90
2023-04-06T18:46:47.367Z,10.80
2023-04-06T18:49:14.048Z,10.80
2023-04-06T18:51:42.843Z,10.70
2023-04-06T18:54:09.526Z,10.70
2023-04-06T18:56:38.337Z,10.60
2023-04-06T18:59:05.038Z,10.50
2023-04-06T19:01:33.137Z,10.50
2023-04-06T19:04:00.827Z,10.40
2023-04-06T19:06:28.063Z,10.40
2023-04-06T19:08:55.540Z,10.30
2023-04-06T19:11:24.927Z,10.20
2023-04-06T19:13:53.449Z,10.20
2023-04-06T19:16:20.255Z,10.10
2023-04-06T19:18:46.907Z,10.10
2023-04-06T19:21:19.872Z,10.00
2023-04-06T19:23:48.716Z,10.00
2023-04-06T19:26:16.851Z,10.00
2023-04-06T19:28:45.393Z,10.00
2023-04-06T19:31:14.549Z,10.00
2023-04-06T19:33:42.070Z,9.90
2023-04-06T19:36:09.473Z,9.90
2023-04-06T19:38:36.966Z,9.90
2023-04-06T19:41:03.971Z,9.80
2023-04-06T19:43:30.996Z,9.80
2023-04-06T19:45:57.724Z,9.60
2023-04-06T19:48:24.414Z,9.60
2023-04-06T19:50:54.729Z,9.60
2023-04-06T19:53:22.849Z,9.50
2023-04-06T19:55:50.358Z,9.50
2023-04-06T19:58:17.375Z,9.40
2023-04-06T20:00:44.361Z,9.40
2023-04-06T20:03:11.387Z,9.30
2023-04-06T20:05:38.119Z,9.20
2023-04-06T20:08:04.996Z,9.10
2023-04-06T20:10:31.665Z,9.10
2023-04-06T20:13:01.170Z,9.10
2023-04-06T20:15:27.960Z,9.00
2023-04-06T20:17:55.475Z,9.00
2023-04-06T20:20:22.278Z,9.00
2023-04-06T20:22:50.091Z,8.90
2023-04-06T20:25:17.816Z,8.90
2023-04-06T20:27:45.704Z,8.90
2023-04-06T20:30:16.682Z,8.70
2023-04-06T20:32:43.912Z,8.70
2023-04-06T20:35:11.046Z,8.70
2023-04-06T20:37:37.944Z,8.60
2023-04-06T20:40:05.675Z,8.50
2023-04-06T20:42:32.323Z,8.50
2023-04-06T20:44:59.433Z,8.60
2023-04-06T20:47:27.030Z,8.50
2023-04-06T20:49:53.913Z,8.50
2023-04-06T20:52:20.612Z,8.50
2023-04-06T20:54:48.425Z,8.50
2023-04-06T20:57:15.436Z,8.50
2023-04-06T20:59:42.238Z,8.40
2023-04-06T21:02:09.018Z,8.40
2023-04-06T21:04:36.346Z,8.40
2023-04-06T21:07:07.453Z,8.30
2023-04-06T21:09:35.617Z,8.30
2023-04-06T21:12:02.994Z,8.20
2023-04-06T21:14:29.694Z,8.30
2023-04-06T21:16:56.695Z,8.30
2023-04-06T21:19:23.742Z,8.30
2023-04-06T21:21:51.118Z,8.30
2023-04-06T21:24:17.905Z,8.30
2023-04-06T21:26:44.626Z,8.20
2023-04-06T21:29:11.262Z,8.20
2023-04-06T21:31:41.273Z,8.20
2023-04-06T21:34:14.695Z,8.10
2023-04-06T21:36:42.003Z,8.00
2023-04-06T21:39:08.958Z,7.90
2023-04-06T21:41:35.860Z,7.90
2023-04-06T21:44:03.019Z,7.90
2023-04-06T21:46:29.633Z,8.00
2023-04-06T21:48:56.268Z,8.00
2023-04-06T21:51:23.419Z,8.00
2023-04-06T21:53:51.570Z,8.10
2023-04-06T21:56:22.641Z,8.00
2023-04-06T21:58:50.294Z,8.10
2023-04-06T22:01:17.729Z,8.20
2023-04-06T22:03:46.048Z,8.30
2023-04-06T22:06:13.182Z,8.30
2023-04-06T22:08:39.860Z,8.40
2023-04-06T22:11:09.011Z,8.30
2023-04-06T22:13:35.972Z,8.30
2023-04-06T22:16:03.117Z,8.30
2023-04-06T22:18:30.599Z,8.30
2023-04-06T22:20:57.439Z,8.30
2023-04-06T22:23:24.214Z,8.30
2023-04-06T22:25:50.941Z,8.20
2023-04-06T22:28:17.552Z,8.20
2023-04-06T22:30:44.388Z,8.20
2023-04-06T22:33:11.184Z,8.20
2023-04-06T22:35:38.032Z,8.20
2023-04-06T22:38:04.738Z,8.10
2023-04-06T22:40:31.437Z,8.10
2023-04-06T22:42:58.076Z,8.00
2023-04-06T22:45:25.865Z,7.90
2023-04-06T22:47:52.843Z,7.90
2023-04-06T22:50:19.662Z,7.80
2023-04-06T22:52:46.329Z,7.90
2023-04-06T22:55:12.983Z,7.90
2023-04-06T22:57:39.589Z,7.90
2023-04-06T23:00:07.044Z,7.80
2023-04-06T23:02:33.902Z,7.90
2023-04-06T23:05:00.795Z,7.90
2023-04-06T23:07:27.477Z,7.90
2023-04-06T23:09:54.124Z,7.90
2023-04-06T23:12:21.186Z,8.00
2023-04-06T23:14:47.780Z,8.00
2023-04-06T23:17:15.068Z,8.10
2023-04-06T23:19:41.736Z,8.10
2023-04-06T23:22:08.392Z,8.10
2023-04-06T23:24:35.378Z,8.00
2023-04-06T23:27:02.131Z,8.00
2023-04-06T23:29:28.779Z,8.10
2023-04-06T23:31:55.452Z,8.10
2023-04-06T23:34:22.108Z,8.00
2023-04-06T23:36:48.799Z,8.10
2023-04-06T23:39:15.701Z,8.00
2023-04-06T23:41:43.043Z,8.10
2023-04-06T23:44:09.631Z,8.00
2023-04-06T23:46:36.337Z,8.10
2023-04-06T23:49:02.997Z,8.10
2023-04-06T23:51:29.669Z,8.10
2023-04-06T23:53:57.915Z,8.00
2023-04-06T23:56:24.630Z,8.00
2023-04-06T23:58:51.288Z,8.00
